createdAt,value
2019-03-22T09:52:33.772Z,13.40
2019-03-22T09:57:27.458Z,12.70
2019-03-22T10:02:20.487Z,17.60
2019-03-22T10:07:13.634Z,21.40
2019-03-22T10:12:09.469Z,16.40
2019-03-22T10:17:01.432Z,15.20
2019-03-22T10:21:54.367Z,17.50
2019-03-22T10:26:47.278Z,15.00
2019-03-22T10:31:39.940Z,14.20
2019-03-22T10:36:32.417Z,15.00
2019-03-22T10:41:25.067Z,14.30
2019-03-22T10:46:17.408Z,13.50
2019-03-22T10:51:10.059Z,15.30
2019-03-22T10:56:02.801Z,15.00
2019-03-22T11:00:55.421Z,14.70
2019-03-22T11:05:48.474Z,15.30
2019-03-22T11:10:40.890Z,10.40
2019-03-22T11:15:33.548Z,15.70
2019-03-22T11:20:26.106Z,11.40
2019-03-22T11:25:19.018Z,11.60
2019-03-22T11:30:11.357Z,14.20
2019-03-22T11:35:03.908Z,14.00
2019-03-22T11:39:56.729Z,16.20
2019-03-22T11:44:49.306Z,7.30
2019-03-22T11:49:41.650Z,12.50
2019-03-22T11:54:34.043Z,9.90
2019-03-22T11:59:26.793Z,15.70
2019-03-22T12:04:19.487Z,13.40
2019-03-22T12:09:11.866Z,12.40
2019-03-22T12:14:04.191Z,10.60
2019-03-22T12:18:57.037Z,14.00
2019-03-22T12:23:49.445Z,11.30
2019-03-22T12:28:41.962Z,9.80
2019-03-22T12:33:34.529Z,9.70
2019-03-22T12:38:27.008Z,11.40
2019-03-22T12:43:19.432Z,9.10
2019-03-22T12:48:11.784Z,13.60
2019-03-22T12:53:04.451Z,10.70
2019-03-22T12:57:56.975Z,10.90
2019-03-22T13:02:50.970Z,8.40
2019-03-22T13:07:43.486Z,7.90
2019-03-22T13:12:35.785Z,15.40
2019-03-22T13:17:28.221Z,8.80
2019-03-22T13:22:20.497Z,8.60
2019-03-22T13:27:12.957Z,10.60
2019-03-22T13:32:05.440Z,10.80
2019-03-22T13:36:57.971Z,9.00
2019-03-22T13:41:50.698Z,8.70
2019-03-22T13:46:43.000Z,9.70
2019-03-22T13:51:35.695Z,7.60
2019-03-22T13:56:28.119Z,7.40
2019-03-22T14:01:20.346Z,12.50
2019-03-22T14:06:13.095Z,8.80
2019-03-22T14:11:05.700Z,13.80
2019-03-22T14:15:58.074Z,6.50
2019-03-22T14:20:51.248Z,5.80
2019-03-22T14:25:43.721Z,9.00
2019-03-22T14:30:36.476Z,10.40
2019-03-22T14:35:29.200Z,8.90
2019-03-22T14:40:21.858Z,8.00
2019-03-22T14:45:14.362Z,3.80
2019-03-22T14:50:06.721Z,7.00
2019-03-22T14:54:59.467Z,2.70
2019-03-22T14:59:58.752Z,4.20
2019-03-22T15:04:49.595Z,2.60
2019-03-22T15:09:41.476Z,5.00
2019-03-22T15:14:33.404Z,4.50
2019-03-22T15:19:25.521Z,2.50
2019-03-22T15:24:17.395Z,4.90
2019-03-22T15:29:09.581Z,4.70
2019-03-22T15:34:03.754Z,3.10
2019-03-22T15:38:56.577Z,6.50
2019-03-22T15:43:49.430Z,4.00
2019-03-22T15:48:41.777Z,2.70
2019-03-22T15:53:34.096Z,9.90
2019-03-22T15:58:26.521Z,3.10
2019-03-22T16:03:18.677Z,5.10
2019-03-22T16:08:10.958Z,3.10
2019-03-22T16:13:03.298Z,3.70
2019-03-22T16:17:55.718Z,3.00
2019-03-22T16:22:48.164Z,6.80
2019-03-22T16:27:42.558Z,1.80
2019-03-22T16:32:34.302Z,2.80
2019-03-22T16:37:26.629Z,2.20
2019-03-22T16:42:18.916Z,4.50
2019-03-22T16:47:11.032Z,2.40
2019-03-22T16:52:03.409Z,3.80
2019-03-22T16:56:55.584Z,2.10
2019-03-22T17:01:47.923Z,2.80
2019-03-22T17:06:40.298Z,3.50
2019-03-22T17:11:32.592Z,3.30
2019-03-22T17:16:25.054Z,4.40
2019-03-22T17:21:17.498Z,8.50
2019-03-22T17:26:09.923Z,1.90
2019-03-22T17:31:02.198Z,4.30
2019-03-22T17:35:54.485Z,1.60
2019-03-22T17:40:46.821Z,2.10
2019-03-22T17:45:39.101Z,2.80
2019-03-22T17:50:31.124Z,3.60
2019-03-22T17:55:23.105Z,3.60
2019-03-22T18:00:15.230Z,5.80
2019-03-22T18:05:07.441Z,7.30
2019-03-22T18:09:59.511Z,6.50
2019-03-22T18:14:51.571Z,2.70
2019-03-22T18:19:43.926Z,3.20
2019-03-22T18:24:36.085Z,11.10
2019-03-22T18:29:28.212Z,14.70
2019-03-22T18:34:20.601Z,5.90
2019-03-22T18:39:12.775Z,7.10
2019-03-22T18:44:06.053Z,3.90
2019-03-22T18:49:00.586Z,4.20
2019-03-22T18:53:52.940Z,8.20
2019-03-22T18:58:45.680Z,3.40
2019-03-22T19:03:37.728Z,6.80
2019-03-22T19:08:29.783Z,3.10
2019-03-22T19:13:30.319Z,10.70
2019-03-22T19:18:23.883Z,4.90
2019-03-22T19:23:15.582Z,4.50
2019-03-22T19:28:07.337Z,4.10
2019-03-22T19:33:00.925Z,6.10
2019-03-22T19:37:55.906Z,3.70
2019-03-22T19:42:48.354Z,6.90
2019-03-22T19:47:40.411Z,4.90
2019-03-22T19:52:32.408Z,4.90
2019-03-22T19:57:24.358Z,4.70
2019-03-22T20:02:16.330Z,5.60
2019-03-22T20:07:08.658Z,13.10
2019-03-22T20:12:00.700Z,11.00
2019-03-22T20:16:52.825Z,11.30
2019-03-22T20:21:44.684Z,16.90
2019-03-22T20:26:36.893Z,10.70
2019-03-22T20:31:28.699Z,19.00
2019-03-22T20:36:20.503Z,7.70
2019-03-22T20:41:12.230Z,11.50
2019-03-22T20:46:04.415Z,8.40
2019-03-22T20:50:56.653Z,7.80
2019-03-22T20:55:48.852Z,14.30
2019-03-22T21:00:41.217Z,10.10
2019-03-22T21:05:33.875Z,10.50
2019-03-22T21:10:27.261Z,12.50
2019-03-22T21:15:24.127Z,12.20
2019-03-22T21:20:15.602Z,13.60
2019-03-22T21:25:07.179Z,13.00
2019-03-22T21:29:59.504Z,16.90
2019-03-22T21:34:51.181Z,11.60
2019-03-22T21:39:43.301Z,10.70
2019-03-22T21:44:35.294Z,14.10
2019-03-22T21:49:27.392Z,8.10
2019-03-22T21:54:20.932Z,13.50
2019-03-22T21:59:13.019Z,14.20
2019-03-22T22:04:06.948Z,12.40
2019-03-22T22:08:58.668Z,13.70
2019-03-22T22:13:50.952Z,13.50
2019-03-22T22:18:43.043Z,13.30
2019-03-22T22:23:34.839Z,15.60
2019-03-22T22:28:26.459Z,19.90
2019-03-22T22:33:18.475Z,14.60
2019-03-22T22:38:10.259Z,16.00
2019-03-22T22:43:02.192Z,13.40
2019-03-22T22:47:53.866Z,15.20
2019-03-22T22:52:45.944Z,9.40
2019-03-22T22:57:38.034Z,13.40
2019-03-22T23:02:30.121Z,16.30
2019-03-22T23:07:22.345Z,15.50
2019-03-22T23:12:14.404Z,18.90
2019-03-22T23:17:06.594Z,17.30
2019-03-22T23:21:58.872Z,18.90
2019-03-22T23:26:50.951Z,19.50
2019-03-22T23:31:42.834Z,17.30
2019-03-22T23:36:34.844Z,18.90
2019-03-22T23:41:26.894Z,20.10
2019-03-22T23:46:18.814Z,18.90
2019-03-22T23:51:10.640Z,20.40
2019-03-22T23:56:02.633Z,21.80
